Open Full Screen Window  High Contrast Mode
Wind Gusting 00 knots
07
August 16, 2017 5:25 PM EDT
Weather Information
Wind Direction
  190 °
Wind Speed
  07 kt (8 mph)
Wind Gust
  00 kt (0 mph)
Altimeter
30.03 in
Visibility
10 SM
Temperature
26° C
79° F
Dewpoint
21° C
70° F
Humidity
74%
1hr Rain Fall
00.00 in.
24hr Rain Fall
00.00 in.
Sky Condition
Broken @ 10,000 ft
Few @ 3,800 ft
VFR

METAR KSYM 162125Z AUTO 19007KT 10SM FEW038 BKN100 26/21 A3003 RMK AO2

*Background is not an actual portrayal of the airport.